createdAt,value
2022-11-19T00:01:19.374Z,76.70
2022-11-19T00:03:52.134Z,76.80
2022-11-19T00:06:25.758Z,76.60
2022-11-19T00:08:53.038Z,76.80
2022-11-19T00:11:41.460Z,76.70
2022-11-19T00:14:10.349Z,76.40
2022-11-19T00:16:37.312Z,76.60
2022-11-19T00:19:05.040Z,76.50
2022-11-19T00:21:31.787Z,76.30
2022-11-19T00:23:59.086Z,76.40
2022-11-19T00:26:26.265Z,76.20
2022-11-19T00:28:54.517Z,76.00
2022-11-19T03:17:58.021Z,75.60
2022-11-19T04:44:08.837Z,73.20
2022-11-19T05:00:46.595Z,73.20
2022-11-19T05:19:42.759Z,73.40
2022-11-19T05:41:30.847Z,72.90
2022-11-19T05:44:46.370Z,72.60
2022-11-19T05:50:49.088Z,72.80
2022-11-19T06:02:54.486Z,72.60
2022-11-19T06:05:21.360Z,73.00
2022-11-19T06:07:48.387Z,73.00
2022-11-19T06:10:16.807Z,72.80
2022-11-19T06:12:46.023Z,71.90
2022-11-19T06:15:14.038Z,72.30
2022-11-19T06:17:41.042Z,72.40
2022-11-19T06:20:10.985Z,72.40
2022-11-19T06:22:38.487Z,72.50
2022-11-19T06:25:06.296Z,72.20
2022-11-19T06:27:33.365Z,72.20
2022-11-19T06:30:00.553Z,72.00
2022-11-19T06:32:27.735Z,72.10
2022-11-19T06:34:54.650Z,72.20
2022-11-19T06:37:21.494Z,72.40
2022-11-19T06:39:48.414Z,72.40
2022-11-19T06:42:33.941Z,72.10
2022-11-19T06:45:00.968Z,72.30
2022-11-19T06:47:31.053Z,72.10
2022-11-19T06:49:57.899Z,72.00
2022-11-19T06:52:25.028Z,71.90
2022-11-19T06:54:52.020Z,71.90
2022-11-19T06:57:19.039Z,72.00
2022-11-19T06:59:46.020Z,71.40
2022-11-19T07:02:13.080Z,71.80
2022-11-19T07:04:39.846Z,71.70
2022-11-19T07:07:07.123Z,71.90
2022-11-19T07:09:33.998Z,72.10
2022-11-19T07:12:01.226Z,71.80
2022-11-19T07:14:28.146Z,72.10
2022-11-19T07:16:56.250Z,71.90
2022-11-19T07:19:23.011Z,71.80
2022-11-19T07:21:50.097Z,71.90
2022-11-19T07:24:18.038Z,72.10
2022-11-19T07:26:45.274Z,71.20
2022-11-19T07:29:16.526Z,71.60
2022-11-19T07:31:43.557Z,71.30
2022-11-19T07:34:10.959Z,71.00
2022-11-19T07:36:38.163Z,71.10
2022-11-19T07:39:06.003Z,71.40
2022-11-19T07:41:51.716Z,71.50
2022-11-19T07:44:21.166Z,71.40
2022-11-19T07:46:47.954Z,71.20
2022-11-19T07:49:15.095Z,71.50
2022-11-19T07:51:41.921Z,71.50
2022-11-19T07:54:11.735Z,71.40
2022-11-19T07:56:40.151Z,71.20
2022-11-19T07:59:07.110Z,71.00
2022-11-19T08:01:34.891Z,70.90
2022-11-19T08:04:02.594Z,70.50
2022-11-19T08:06:30.101Z,71.20
2022-11-19T08:08:57.500Z,71.00
2022-11-19T08:11:24.938Z,71.20
2022-11-19T08:13:53.780Z,71.10
2022-11-19T08:16:40.273Z,70.40
2022-11-19T08:19:09.758Z,70.60
2022-11-19T08:21:39.964Z,70.10
2022-11-19T08:24:07.900Z,69.90
2022-11-19T08:26:35.030Z,70.60
2022-11-19T08:29:01.964Z,70.20
2022-11-19T08:31:28.899Z,70.50
2022-11-19T08:33:55.984Z,69.90
2022-11-19T08:36:23.075Z,69.40
2022-11-19T08:38:50.065Z,69.40
2022-11-19T08:41:35.576Z,69.20
2022-11-19T08:44:03.151Z,69.60
2022-11-19T08:46:29.949Z,69.60
2022-11-19T08:48:56.755Z,68.90
2022-11-19T08:51:23.876Z,69.20
2022-11-19T08:53:53.797Z,69.20
2022-11-19T08:56:21.321Z,69.20
2022-11-19T08:58:48.652Z,68.70
2022-11-19T09:01:17.006Z,68.80
2022-11-19T09:03:43.991Z,69.10
2022-11-19T09:06:11.090Z,69.20
2022-11-19T09:08:38.446Z,69.20
2022-11-19T09:11:10.582Z,69.00
2022-11-19T09:13:38.067Z,68.80
2022-11-19T09:16:05.982Z,68.70
2022-11-19T09:18:33.121Z,68.40
2022-11-19T09:21:00.412Z,68.40
2022-11-19T09:23:27.753Z,68.70
2022-11-19T09:25:57.050Z,69.00
2022-11-19T09:28:24.741Z,69.30
2022-11-19T09:31:12.563Z,69.00
2022-11-19T09:33:44.362Z,68.70
2022-11-19T09:36:12.012Z,68.50
2022-11-19T09:38:40.205Z,69.00
2022-11-19T09:41:32.438Z,69.00
2022-11-19T09:44:38.338Z,69.20
2022-11-19T09:47:10.883Z,69.30
2022-11-19T09:50:00.847Z,69.10
2022-11-19T09:52:30.757Z,68.90
2022-11-19T09:54:57.889Z,68.30
2022-11-19T09:57:43.465Z,68.20
2022-11-19T10:00:17.801Z,68.20
2022-11-19T10:02:45.007Z,67.70
2022-11-19T10:05:21.847Z,67.60
2022-11-19T10:08:18.931Z,67.50
2022-11-19T10:11:16.722Z,68.10
2022-11-19T10:14:25.433Z,68.30
2022-11-19T10:16:57.137Z,67.90
2022-11-19T10:19:26.737Z,66.90
2022-11-19T10:22:18.688Z,67.10
2022-11-19T10:24:57.062Z,66.30
2022-11-19T10:27:37.358Z,66.10
2022-11-19T10:30:13.623Z,66.20
2022-11-19T10:33:04.538Z,67.00
2022-11-19T10:35:43.905Z,67.10
2022-11-19T10:38:26.301Z,66.40
2022-11-19T10:41:19.369Z,66.60
2022-11-19T10:43:52.380Z,66.50
2022-11-19T10:46:25.292Z,66.30
2022-11-19T10:48:58.313Z,65.30
2022-11-19T10:51:30.317Z,65.30
2022-11-19T10:53:57.821Z,65.70
2022-11-19T10:56:36.672Z,65.90
2022-11-19T10:59:19.187Z,65.30
2022-11-19T11:01:50.854Z,65.60
2022-11-19T11:04:21.571Z,65.70
2022-11-19T11:06:56.717Z,65.80
2022-11-19T11:09:34.317Z,65.80
2022-11-19T11:12:37.429Z,65.70
2022-11-19T11:15:25.837Z,65.70
2022-11-19T11:18:09.108Z,65.90
2022-11-19T11:20:38.772Z,65.80
2022-11-19T11:23:11.132Z,66.30
2022-11-19T11:25:50.017Z,66.30
2022-11-19T11:28:19.910Z,66.50
2022-11-19T11:31:08.468Z,65.70
2022-11-19T11:33:54.431Z,66.00
2022-11-19T11:36:28.220Z,66.40
2022-11-19T11:38:58.468Z,65.90
2022-11-19T11:44:34.132Z,65.10
2022-11-19T11:47:05.194Z,65.20
2022-11-19T11:49:38.113Z,65.10
2022-11-19T11:52:19.758Z,65.20
2022-11-19T11:55:00.434Z,65.10
2022-11-19T11:57:33.793Z,65.40
2022-11-19T12:00:02.633Z,65.40
2022-11-19T12:02:34.955Z,65.40
2022-11-19T12:05:18.215Z,64.90
2022-11-19T12:08:14.388Z,64.80
2022-11-19T12:11:03.603Z,63.80
2022-11-19T12:13:48.585Z,63.60
2022-11-19T12:16:36.730Z,63.60
2022-11-19T12:19:41.269Z,63.50
2022-11-19T12:22:23.411Z,62.90
2022-11-19T12:25:06.171Z,63.00
2022-11-19T12:27:51.667Z,63.30
2022-11-19T12:30:24.549Z,63.00
2022-11-19T12:33:06.926Z,63.20
2022-11-19T12:35:43.142Z,63.40
2022-11-19T12:38:45.281Z,63.40
2022-11-19T12:41:33.461Z,63.00
2022-11-19T12:44:29.727Z,62.80
2022-11-19T12:47:23.901Z,62.70
2022-11-19T12:50:18.753Z,62.60
2022-11-19T12:53:12.478Z,62.60
2022-11-19T12:55:56.385Z,61.90
2022-11-19T12:58:31.304Z,61.50
2022-11-19T13:01:06.378Z,62.10
2022-11-19T13:03:48.210Z,61.70
2022-11-19T13:06:42.889Z,62.10
2022-11-19T13:09:50.504Z,62.60
2022-11-19T13:12:32.620Z,62.80
2022-11-19T13:15:19.362Z,62.20
2022-11-19T13:17:51.966Z,62.00
2022-11-19T13:20:23.911Z,61.40
2022-11-19T13:22:54.088Z,62.20
2022-11-19T13:25:30.629Z,62.30
2022-11-19T13:27:59.558Z,62.20
2022-11-19T13:30:27.733Z,62.10
2022-11-19T13:33:20.296Z,62.30
2022-11-19T13:36:03.255Z,62.20
2022-11-19T13:38:51.790Z,62.30
2022-11-19T13:41:20.601Z,62.00
2022-11-19T13:44:07.310Z,62.40
2022-11-19T13:49:37.230Z,62.20
2022-11-19T13:52:08.736Z,62.20
2022-11-19T13:54:40.789Z,60.80
2022-11-19T13:57:09.472Z,61.60
2022-11-19T13:59:43.461Z,61.70
2022-11-19T14:02:32.527Z,61.80
2022-11-19T14:05:25.720Z,61.70
2022-11-19T14:08:07.485Z,61.20
2022-11-19T14:10:56.848Z,61.30
2022-11-19T14:14:00.599Z,61.30
2022-11-19T14:17:09.332Z,61.40
2022-11-19T14:20:14.644Z,61.70
2022-11-19T14:23:13.238Z,61.10
2022-11-19T14:26:06.063Z,61.80
2022-11-19T14:28:43.665Z,61.30
2022-11-19T14:31:11.051Z,61.30
2022-11-19T14:33:50.234Z,60.30
2022-11-19T14:36:25.605Z,60.80
2022-11-19T14:39:01.824Z,61.00
2022-11-19T14:41:31.702Z,61.30
2022-11-19T14:44:25.029Z,61.10
2022-11-19T14:46:52.012Z,61.20
2022-11-19T14:49:27.737Z,61.20
2022-11-19T14:51:56.637Z,61.20
2022-11-19T14:54:46.697Z,61.30
2022-11-19T14:57:31.536Z,61.30
2022-11-19T15:00:15.818Z,61.50
2022-11-19T15:02:46.862Z,61.40
2022-11-19T15:05:22.265Z,61.70
2022-11-19T15:07:56.213Z,61.50
2022-11-19T15:10:28.114Z,61.70
2022-11-19T15:13:27.480Z,61.80
2022-11-19T15:16:11.312Z,61.80
2022-11-19T15:18:41.438Z,61.80
2022-11-19T15:21:43.442Z,61.90
2022-11-19T15:24:13.243Z,61.90
2022-11-19T15:27:01.919Z,61.90
2022-11-19T15:29:34.479Z,62.10
2022-11-19T15:32:36.065Z,62.00
2022-11-19T15:35:15.289Z,62.10
2022-11-19T15:37:51.010Z,62.30
2022-11-19T15:40:22.632Z,62.30
2022-11-19T15:43:16.484Z,62.40
2022-11-19T15:46:11.714Z,62.60
2022-11-19T15:49:10.516Z,62.70
2022-11-19T15:51:48.741Z,62.60
2022-11-19T15:54:15.759Z,62.70
2022-11-19T15:56:50.513Z,62.80
2022-11-19T15:59:20.290Z,62.50
2022-11-19T16:02:00.990Z,62.60
2022-11-19T16:04:38.807Z,62.60
2022-11-19T16:07:09.230Z,62.60
2022-11-19T16:09:37.371Z,62.40
2022-11-19T16:12:23.451Z,62.50
2022-11-19T16:15:10.769Z,62.10
2022-11-19T16:17:47.869Z,62.40
2022-11-19T16:20:21.861Z,62.40
2022-11-19T16:23:17.390Z,62.40
2022-11-19T16:25:44.775Z,62.50
2022-11-19T16:28:27.864Z,62.50
2022-11-19T16:31:03.808Z,62.60
2022-11-19T16:33:33.007Z,62.60
2022-11-19T16:36:17.314Z,62.40
2022-11-19T16:38:48.225Z,62.60
2022-11-19T16:41:37.110Z,62.80
2022-11-19T16:44:22.041Z,62.70
2022-11-19T16:46:50.414Z,62.90
2022-11-19T16:49:32.648Z,62.80
2022-11-19T16:52:00.105Z,62.90
2022-11-19T16:54:44.932Z,63.10
2022-11-19T16:57:14.212Z,63.10
2022-11-19T16:59:42.007Z,63.20
2022-11-19T17:02:15.958Z,63.20
2022-11-19T17:04:48.976Z,63.40
2022-11-19T17:07:27.386Z,63.30
2022-11-19T17:10:12.496Z,63.30
2022-11-19T17:12:55.678Z,63.40
2022-11-19T17:15:41.030Z,63.40
2022-11-19T17:18:29.438Z,63.40
2022-11-19T17:20:59.982Z,63.40
2022-11-19T17:23:33.250Z,63.40
2022-11-19T17:26:06.798Z,63.50
2022-11-19T17:28:41.332Z,63.60
2022-11-19T17:31:21.064Z,63.70
2022-11-19T17:33:53.914Z,63.70
2022-11-19T17:36:22.070Z,63.80
2022-11-19T17:38:49.972Z,63.80
2022-11-19T17:41:41.918Z,63.80
2022-11-19T17:44:36.293Z,63.90
2022-11-19T17:47:20.799Z,64.10
2022-11-19T17:49:49.413Z,64.10
2022-11-19T17:52:28.455Z,64.20
2022-11-19T17:55:09.614Z,64.20
2022-11-19T17:57:41.269Z,64.20
2022-11-19T18:00:10.599Z,64.20
2022-11-19T18:02:37.574Z,64.40
2022-11-19T18:05:15.464Z,64.30
2022-11-19T18:07:42.611Z,64.50
2022-11-19T18:10:09.882Z,64.40
2022-11-19T18:12:36.791Z,64.60
2022-11-19T18:15:04.686Z,64.60
2022-11-19T18:17:31.602Z,64.60
2022-11-19T18:19:58.815Z,64.40
2022-11-19T18:22:25.851Z,64.50
2022-11-19T18:24:52.998Z,64.50
2022-11-19T18:27:19.952Z,64.30
2022-11-19T18:29:48.220Z,64.50
2022-11-19T18:32:16.855Z,64.50
2022-11-19T18:34:46.057Z,64.50
2022-11-19T18:37:13.342Z,64.50
2022-11-19T18:39:40.247Z,64.50
2022-11-19T18:42:11.331Z,64.70
2022-11-19T18:44:39.258Z,64.90
2022-11-19T18:47:08.490Z,64.60
2022-11-19T18:49:35.364Z,64.60
2022-11-19T18:52:07.530Z,64.70
2022-11-19T18:54:34.963Z,64.80
2022-11-19T18:57:02.403Z,64.80
2022-11-19T18:59:31.046Z,64.80
2022-11-19T19:01:58.035Z,64.60
2022-11-19T19:04:27.701Z,64.70
2022-11-19T19:06:55.242Z,65.00
2022-11-19T19:09:25.437Z,65.00
2022-11-19T19:12:13.788Z,64.90
2022-11-19T19:14:44.536Z,64.90
2022-11-19T19:17:12.171Z,64.90
2022-11-19T19:19:39.509Z,65.00
2022-11-19T19:22:06.801Z,65.10
2022-11-19T19:24:34.238Z,65.20
2022-11-19T19:27:02.153Z,65.20
2022-11-19T19:29:31.803Z,65.30
2022-11-19T19:31:58.620Z,65.30
2022-11-19T19:34:28.577Z,65.20
2022-11-19T19:36:55.671Z,65.10
2022-11-19T19:39:22.932Z,65.10
2022-11-19T19:41:51.407Z,65.20
2022-11-19T19:44:20.216Z,65.30
2022-11-19T19:46:51.555Z,65.20
2022-11-19T19:49:18.965Z,65.40
2022-11-19T19:51:47.505Z,65.30
2022-11-19T19:54:14.354Z,65.40
2022-11-19T19:56:44.728Z,65.30
2022-11-19T19:59:17.734Z,65.50
2022-11-19T20:01:51.157Z,65.50
2022-11-19T20:04:20.364Z,65.60
2022-11-19T20:06:48.027Z,65.60
2022-11-19T20:09:18.112Z,65.70
2022-11-19T20:11:47.428Z,65.50
2022-11-19T20:14:14.312Z,65.50
2022-11-19T20:16:44.475Z,65.40
2022-11-19T20:19:15.971Z,65.50
2022-11-19T20:21:42.978Z,65.70
2022-11-19T20:24:13.951Z,65.40
2022-11-19T20:26:45.690Z,65.40
2022-11-19T20:29:14.720Z,65.40
2022-11-19T20:31:48.811Z,65.50
2022-11-19T20:34:19.758Z,65.50
2022-11-19T20:36:46.846Z,65.50
2022-11-19T20:39:13.965Z,65.50
2022-11-19T20:41:59.859Z,65.60
2022-11-19T20:44:27.250Z,65.70
2022-11-19T20:46:59.844Z,65.90
2022-11-19T20:49:31.560Z,65.90
2022-11-19T20:51:58.846Z,65.90
2022-11-19T20:54:26.862Z,65.90
2022-11-19T20:56:56.678Z,65.90
2022-11-19T20:59:26.363Z,66.10
2022-11-19T21:01:56.065Z,66.10
2022-11-19T21:04:24.845Z,66.10
2022-11-19T21:06:54.233Z,66.20
2022-11-19T21:09:21.708Z,66.30
2022-11-19T21:11:49.230Z,66.20
2022-11-19T21:14:16.047Z,66.30
2022-11-19T21:16:42.819Z,66.40
2022-11-19T21:19:12.812Z,66.40
2022-11-19T21:21:39.803Z,66.40
2022-11-19T21:24:07.262Z,66.60
2022-11-19T21:26:34.965Z,66.60
2022-11-19T21:29:02.315Z,66.70
2022-11-19T21:31:42.728Z,66.60
2022-11-19T21:34:15.105Z,66.60
2022-11-19T21:36:43.741Z,66.70
2022-11-19T21:39:11.522Z,66.60
2022-11-19T21:41:38.535Z,66.50
2022-11-19T21:44:05.981Z,66.50
2022-11-19T21:46:33.533Z,66.70
2022-11-19T21:49:01.460Z,66.80
2022-11-19T21:51:28.795Z,66.80
2022-11-19T21:53:59.113Z,66.80
2022-11-19T21:56:27.455Z,66.80
2022-11-19T21:58:58.028Z,67.00
2022-11-19T22:16:54.874Z,67.30
2022-11-19T22:19:22.121Z,67.30
2022-11-19T22:21:49.331Z,67.40
2022-11-19T22:24:16.770Z,67.50
2022-11-19T22:26:43.695Z,67.60
2022-11-19T22:29:10.945Z,67.70
2022-11-19T22:31:38.100Z,67.70
2022-11-19T22:34:17.460Z,67.70
2022-11-19T22:36:47.326Z,67.70
2022-11-19T22:39:32.512Z,67.60
2022-11-19T22:42:00.224Z,67.60
2022-11-19T22:44:27.092Z,67.60
2022-11-19T22:46:56.939Z,67.50
2022-11-19T22:49:25.257Z,67.50
2022-11-19T22:51:52.701Z,67.60
2022-11-19T22:54:20.363Z,67.60
2022-11-19T22:56:47.412Z,67.70
2022-11-19T22:59:14.277Z,67.80
2022-11-19T23:01:41.209Z,67.90
2022-11-19T23:04:08.881Z,67.90
2022-11-19T23:06:37.103Z,68.00
2022-11-19T23:09:05.115Z,68.00
2022-11-19T23:11:50.618Z,68.10
2022-11-19T23:14:18.898Z,68.10
2022-11-19T23:16:48.787Z,68.10
2022-11-19T23:19:19.778Z,68.10
2022-11-19T23:21:49.208Z,68.10
2022-11-19T23:24:16.131Z,68.00
2022-11-19T23:26:43.074Z,68.20
2022-11-19T23:29:10.167Z,68.20
2022-11-19T23:31:40.646Z,68.20
2022-11-19T23:34:08.043Z,68.30
2022-11-19T23:36:38.207Z,68.30
2022-11-19T23:39:06.737Z,68.40
2022-11-19T23:41:34.821Z,68.50
2022-11-19T23:44:02.463Z,68.60
2022-11-19T23:46:32.122Z,68.60
2022-11-19T23:49:00.342Z,68.60
2022-11-19T23:51:29.544Z,68.80
2022-11-19T23:53:57.331Z,68.90
2022-11-19T23:56:25.476Z,69.00
2022-11-19T23:58:53.099Z,69.00
